Current Weather

Buckeye Muni

Buckeye, Arizona (KBXK)

Report from: Monday, August 15, 2022 5:35 PM MST
Current time: Monday, August 15, 2022 5:57 PM MST

Nearby weather
Weather history
Weather forecast

Temperature37.0°C (98.6°F)
Heat index38.7°C (101.6°F)
Dew point18.0°C (64.4°F)
Winds 5 kts (2.6 m/s, 5.8 mph) Southwest (230°)
Visibility10 mi. (16.1 km)
Altimeter29.75 in.Hg (1007 mB)
Relative humidity33 %
Density altitude2,962 ft. (903 m)
Remarks Fully automated report
Flight conditions Visual Meteorological Conditions
Raw dataKBXK 160035Z AUTO 23005KT 10SM 37/18 A2975 RMK A01
An error has occurred. This application may no longer respond until reloaded. Reload 🗙